Time;durP1;ratioP1;P1;durP2;ratioP2;P2;SDS_P1;SDS_P2;PMS_P1;PMS_P2;Temp;Humidity;BMP_temperature;BMP_pressure;BME280_temperature;BME280_humidity;BME280_pressure;Samples;Min_cycle;Max_cycle;Signal;HPM_P1;HPM_P2
2023/01/05 00:06:07;;;;;;;;;;;;;;;6.94;100.00;93547.56;2028105;29;20719;-84
2023/01/05 00:07:16;;;;;;;;;;;;;;;7.20;100.00;93550.91;2055119;28;19914;-84
2023/01/05 00:08:22;;;;;;;;;;;;;;;7.21;100.00;93533.84;2055843;28;19914;-84
2023/01/05 00:09:31;;;;;;;;;;;;;;;7.23;100.00;93544.84;2062717;28;19917;-85
2023/01/05 00:23:04;;;;;;;;;;;;;;;6.87;100.00;93528.97;2066201;28;19909;-83
2023/01/05 00:24:10;;;;;;;;;;;;;;;6.80;100.00;93528.97;2049523;28;20004;-83
2023/01/05 00:25:17;;;;;;;;;;;;;;;6.88;100.00;93535.78;2050202;28;20023;-84
2023/01/05 00:26:21;;;;;;;;;;;;;;;6.86;100.00;93519.47;2050661;28;19911;-83
2023/01/05 00:27:29;;;;;;;;;;;;;;;6.85;100.00;93528.59;2058417;28;19941;-84
2023/01/05 00:28:34;;;;;;;;;;;;;;;6.77;100.00;93524.44;2049760;28;19937;-83
2023/01/05 00:29:40;;;;;;;;;;;;;;;6.72;100.00;93516.84;2059409;28;19914;-82
2023/01/05 00:30:46;;;;;;;;;;;;;;;6.85;100.00;93530.47;2067641;28;19981;-83
2023/01/05 00:31:55;;;;;;;;;;;;;;;6.86;100.00;93527.44;2056672;28;20332;-84
2023/01/05 00:33:00;;;;;;;;;;;;;;;6.95;100.00;93513.78;2060332;28;19914;-83
2023/01/05 00:34:14;;;;;;;;;;;;;;;6.87;100.00;93518.34;2055896;28;19917;-84
2023/01/05 00:35:20;;;;;;;;;;;;;;;6.99;100.00;93515.28;2044313;28;19981;-84
2023/01/05 00:36:40;;;;;;;;;;;;;;;6.92;100.00;93507.31;2054330;28;20017;-83
2023/01/05 00:37:46;;;;;;;;;;;;;;;6.95;100.00;93525.16;2057783;28;19925;-84
2023/01/05 00:38:52;;;;;;;;;;;;;;;7.15;100.00;93514.09;2049638;28;20001;-84
2023/01/05 00:39:58;;;;;;;;;;;;;;;7.17;100.00;93515.25;2055588;28;19917;-84
2023/01/05 00:41:03;;;;;;;;;;;;;;;7.15;100.00;93517.50;2052259;28;20302;-83
2023/01/05 00:42:08;;;;;;;;;;;;;;;7.35;100.00;93503.81;2056869;28;20449;-84
2023/01/05 00:43:11;;;;;;;;;;;;;;;7.23;100.00;93513.69;2047941;28;20379;-83
2023/01/05 00:44:25;;;;;;;;;;;;;;;7.08;100.00;93512.22;2061978;28;19916;-83
2023/01/05 00:45:31;;;;;;;;;;;;;;;6.98;100.00;93518.31;2063449;28;19968;-84
2023/01/05 00:46:37;;;;;;;;;;;;;;;6.95;100.00;93521.75;2064971;28;20614;-83
2023/01/05 00:47:43;;;;;;;;;;;;;;;6.96;100.00;93517.94;2067048;28;20008;-83
2023/01/05 00:48:48;;;;;;;;;;;;;;;6.98;100.00;93513.00;2066710;28;19910;-84
2023/01/05 00:49:54;;;;;;;;;;;;;;;6.90;100.00;93514.16;2061612;28;19910;-83
2023/01/05 00:51:00;;;;;;;;;;;;;;;6.84;100.00;93523.66;2064855;28;20008;-83
2023/01/05 00:52:05;;;;;;;;;;;;;;;7.24;100.00;93525.88;2056954;28;19913;-84
2023/01/05 00:53:10;;;;;;;;;;;;;;;7.24;100.00;93525.09;2044181;28;20002;-83
2023/01/05 00:54:15;;;;;;;;;;;;;;;7.18;100.00;93529.28;2043490;28;19918;-83
2023/01/05 00:55:20;;;;;;;;;;;;;;;7.10;100.00;93517.91;2057993;28;19914;-84
2023/01/05 00:56:26;;;;;;;;;;;;;;;7.22;100.00;93544.09;2074882;28;19913;-83
2023/01/05 00:57:36;;;;;;;;;;;;;;;7.42;100.00;93546.31;2066990;28;19993;-83
2023/01/05 00:58:44;;;;;;;;;;;;;;;7.26;100.00;93534.22;2057405;28;19922;-84
2023/01/05 00:59:50;;;;;;;;;;;;;;;7.18;100.00;93542.59;2048480;28;19985;-83
2023/01/05 01:00:56;;;;;;;;;;;;;;;7.13;100.00;93537.66;2048302;28;19914;-84
2023/01/05 01:02:02;;;;;;;;;;;;;;;7.08;100.00;93541.47;2047739;28;20029;-84
2023/01/05 01:03:08;;;;;;;;;;;;;;;7.06;100.00;93547.16;2055971;28;19914;-83
2023/01/05 01:04:12;;;;;;;;;;;;;;;7.13;100.00;93535.00;2040630;28;19915;-84
2023/01/05 01:05:18;;;;;;;;;;;;;;;7.27;100.00;93532.31;2050393;28;19910;-84
2023/01/05 01:06:25;;;;;;;;;;;;;;;7.42;100.00;93533.81;2053076;28;19914;-83
2023/01/05 01:07:32;;;;;;;;;;;;;;;7.53;100.00;93537.16;2052857;28;19917;-83
2023/01/05 01:08:37;;;;;;;;;;;;;;;7.47;100.00;93536.06;2042393;28;19915;-83
2023/01/05 01:09:41;;;;;;;;;;;;;;;7.31;100.00;93530.41;2048056;28;19914;-84
2023/01/05 01:10:47;;;;;;;;;;;;;;;7.20;100.00;93534.97;2057045;28;19910;-83
2023/01/05 01:11:53;;;;;;;;;;;;;;;7.14;100.00;93529.28;2061298;28;19954;-84
2023/01/05 01:12:59;;;;;;;;;;;;;;;7.14;100.00;93531.94;2047365;28;19919;-84
2023/01/05 01:14:00;;;;;;;;;;;;;;;7.00;100.00;93534.66;2049386;28;20391;-83
2023/01/05 01:15:22;;;;;;;;;;;;;;;6.90;100.00;93538.84;2040942;29;19918;-83
2023/01/05 01:16:23;;;;;;;;;;;;;;;6.94;100.00;93528.97;2053000;28;20347;-84
2023/01/05 01:17:32;;;;;;;;;;;;;;;7.04;100.00;93541.47;2058784;28;19996;-83
2023/01/05 01:18:32;;;;;;;;;;;;;;;6.83;100.00;93538.84;2047559;28;19914;-83
2023/01/05 01:19:33;;;;;;;;;;;;;;;6.84;100.00;93534.28;2048632;28;20569;-82
2023/01/05 01:20:36;;;;;;;;;;;;;;;6.99;100.00;93533.88;2056599;28;20302;-83
2023/01/05 01:21:37;;;;;;;;;;;;;;;6.92;100.00;93538.44;2067008;28;19909;-83
2023/01/05 01:22:37;;;;;;;;;;;;;;;6.90;100.00;93530.09;2062802;28;19948;-83
2023/01/05 01:23:39;;;;;;;;;;;;;;;6.89;100.00;93537.31;2054700;28;20038;-83
2023/01/05 01:24:40;;;;;;;;;;;;;;;6.76;100.00;93531.63;2056647;28;20461;-83
2023/01/05 01:25:41;;;;;;;;;;;;;;;6.72;100.00;93543.41;2048654;29;19948;-83
2023/01/05 01:26:41;;;;;;;;;;;;;;;6.98;100.00;93535.03;2056855;28;19918;-84
2023/01/05 01:27:42;;;;;;;;;;;;;;;7.10;100.00;93531.19;2056631;28;19960;-84
2023/01/05 01:28:45;;;;;;;;;;;;;;;7.11;100.00;93532.72;2056564;28;19914;-84
2023/01/05 01:29:47;;;;;;;;;;;;;;;7.26;100.00;93530.81;2056802;28;19925;-83
2023/01/05 01:30:49;;;;;;;;;;;;;;;7.06;100.00;93533.09;2054792;28;19917;-84
2023/01/05 01:31:51;;;;;;;;;;;;;;;6.99;100.00;93535.78;2062578;28;20461;-83
2023/01/05 01:32:51;;;;;;;;;;;;;;;6.90;100.00;93540.75;2056825;28;19945;-84
2023/01/05 01:33:52;;;;;;;;;;;;;;;6.98;100.00;93537.69;2056826;28;20021;-83
2023/01/05 01:34:54;;;;;;;;;;;;;;;6.91;100.00;93528.97;2061109;28;19924;-84
2023/01/05 01:35:55;;;;;;;;;;;;;;;7.05;100.00;93545.63;2056713;28;20486;-84
2023/01/05 01:36:55;;;;;;;;;;;;;;;7.11;100.00;93532.72;2056812;28;19917;-82
2023/01/05 01:37:56;;;;;;;;;;;;;;;7.11;100.00;93538.03;2056682;28;19966;-84
2023/01/05 01:38:57;;;;;;;;;;;;;;;7.06;100.00;93531.19;2055205;28;20713;-83
2023/01/05 01:39:58;;;;;;;;;;;;;;;7.02;100.00;93538.44;2047813;28;19915;-83
2023/01/05 01:40:59;;;;;;;;;;;;;;;6.96;100.00;93534.66;2044999;29;19966;-83
2023/01/05 01:42:00;;;;;;;;;;;;;;;7.02;100.00;93533.13;2040148;28;19914;-83
2023/01/05 01:43:00;;;;;;;;;;;;;;;6.82;100.00;93526.69;2048567;29;19925;-83
2023/01/05 01:44:01;;;;;;;;;;;;;;;6.91;100.00;93534.28;2048044;28;19938;-83
2023/01/05 01:45:16;;;;;;;;;;;;;;;6.80;100.00;93529.75;2058751;28;19916;-83
2023/01/05 01:46:18;;;;;;;;;;;;;;;6.73;100.00;93539.59;2057916;28;19932;-83
2023/01/05 01:47:22;;;;;;;;;;;;;;;6.82;100.00;93532.00;2046809;28;20426;-83
2023/01/05 01:48:22;;;;;;;;;;;;;;;6.90;100.00;93533.53;2051558;28;19914;-83
2023/01/05 01:49:23;;;;;;;;;;;;;;;6.99;100.00;93541.09;2048475;28;20279;-83
2023/01/05 01:50:27;;;;;;;;;;;;;;;6.88;100.00;93532.38;2041050;29;19925;-83
2023/01/05 01:51:34;;;;;;;;;;;;;;;6.86;100.00;93540.75;2049411;28;19917;-83
2023/01/05 01:52:36;;;;;;;;;;;;;;;6.91;100.00;93534.28;2063017;28;19922;-84
2023/01/05 01:53:40;;;;;;;;;;;;;;;6.76;100.00;93541.47;2054631;28;19910;-84
2023/01/05 01:54:41;;;;;;;;;;;;;;;6.86;100.00;93535.44;2047215;28;19914;-83
2023/01/05 01:56:16;;;;;;;;;;;;;;;6.77;100.00;93543.78;2048515;28;19941;-84
2023/01/05 01:57:17;;;;;;;;;;;;;;;6.77;100.00;93540.38;2050707;28;19938;-84
2023/01/05 01:58:21;;;;;;;;;;;;;;;6.75;100.00;93542.63;2046632;28;20256;-83
2023/01/05 01:59:23;;;;;;;;;;;;;;;6.87;100.00;93536.94;2055526;28;20374;-83
2023/01/05 02:00:23;;;;;;;;;;;;;;;6.84;100.00;93537.69;2060225;28;19919;-83
2023/01/05 02:01:24;;;;;;;;;;;;;;;6.80;100.00;93537.72;2048316;29;19957;-83
2023/01/05 02:02:26;;;;;;;;;;;;;;;6.75;100.00;93542.63;2051869;28;19914;-83
2023/01/05 02:03:27;;;;;;;;;;;;;;;6.84;100.00;93543.00;2051174;28;20418;-83
2023/01/05 02:04:32;;;;;;;;;;;;;;;6.74;100.00;93544.53;2048497;28;19969;-83
2023/01/05 02:05:33;;;;;;;;;;;;;;;6.77;100.00;93533.16;2046169;28;20368;-83
2023/01/05 02:06:34;;;;;;;;;;;;;;;6.76;100.00;93528.97;2051106;28;20454;-83
2023/01/05 02:07:38;;;;;;;;;;;;;;;6.74;100.00;93535.81;2057609;28;20391;-83
2023/01/05 02:08:39;;;;;;;;;;;;;;;6.68;100.00;93532.03;2047945;28;19914;-83
2023/01/05 02:09:41;;;;;;;;;;;;;;;6.84;100.00;93545.66;2039725;28;19918;-83
2023/01/05 02:10:55;;;;;;;;;;;;;;;7.03;100.00;93539.22;2048019;28;19923;-83
2023/01/05 02:12:25;;;;;;;;;;;;;;;6.81;100.00;93531.25;2048175;28;20035;-83
2023/01/05 02:13:46;;;;;;;;;;;;;;;6.84;100.00;93524.41;2044945;28;20441;-83
2023/01/05 02:14:49;;;;;;;;;;;;;;;6.91;100.00;93519.09;2044542;28;20349;-83
2023/01/05 02:15:53;;;;;;;;;;;;;;;7.00;100.00;93522.09;2048703;28;19984;-83
2023/01/05 02:17:03;;;;;;;;;;;;;;;7.04;100.00;93511.47;2047309;28;19981;-83
2023/01/05 02:18:06;;;;;;;;;;;;;;;6.93;100.00;93508.06;2050732;28;19921;-83
2023/01/05 02:19:10;;;;;;;;;;;;;;;6.85;100.00;93517.19;2046695;28;19910;-82
2023/01/05 02:20:29;;;;;;;;;;;;;;;6.85;100.00;93523.28;2057058;28;19920;-82
2023/01/05 02:22:02;;;;;;;;;;;;;;;7.10;100.00;93515.25;2054486;28;20009;-83
2023/01/05 02:23:05;;;;;;;;;;;;;;;6.93;100.00;93508.81;2019681;29;20021;-83
2023/01/05 02:24:19;;;;;;;;;;;;;;;6.89;100.00;93509.97;2052791;28;19925;-82
2023/01/05 02:25:35;;;;;;;;;;;;;;;6.93;100.00;93506.16;2051594;28;19953;-83
2023/01/05 02:26:35;;;;;;;;;;;;;;;6.89;100.00;93515.28;2061310;28;19913;-83
2023/01/05 02:27:41;;;;;;;;;;;;;;;7.02;100.00;93519.84;2056121;28;20582;-83
2023/01/05 02:28:59;;;;;;;;;;;;;;;6.97;100.00;93514.91;2064668;28;19918;-83
2023/01/05 02:30:00;;;;;;;;;;;;;;;6.86;100.00;93511.50;2063584;28;19921;-83
2023/01/05 02:31:04;;;;;;;;;;;;;;;7.00;100.00;93510.72;2049976;28;20400;-82
2023/01/05 02:32:14;;;;;;;;;;;;;;;6.92;100.00;93501.25;2048682;28;19973;-84
2023/01/05 02:33:19;;;;;;;;;;;;;;;6.94;100.00;93505.03;2048498;28;19922;-83
2023/01/05 02:34:19;;;;;;;;;;;;;;;6.99;100.00;93504.66;2058318;28;20664;-83
2023/01/05 02:35:20;;;;;;;;;;;;;;;6.95;100.00;93506.56;2048299;29;19914;-83
2023/01/05 02:36:39;;;;;;;;;;;;;;;7.03;100.00;93505.41;2048494;28;19919;-84
2023/01/05 02:37:42;;;;;;;;;;;;;;;7.00;100.00;93506.16;2055920;28;19914;-83
2023/01/05 02:38:56;;;;;;;;;;;;;;;6.92;100.00;93509.97;2049809;28;19941;-83
2023/01/05 02:40:13;;;;;;;;;;;;;;;6.88;100.00;93503.91;2043837;28;20296;-84
2023/01/05 02:41:20;;;;;;;;;;;;;;;6.90;100.00;93503.53;2048418;28;19926;-83
2023/01/05 02:42:24;;;;;;;;;;;;;;;6.91;100.00;93515.69;2056581;28;19996;-83
2023/01/05 02:43:27;;;;;;;;;;;;;;;7.15;100.00;93508.78;2058556;28;19910;-84
2023/01/05 02:44:29;;;;;;;;;;;;;;;7.08;100.00;93512.22;2043022;28;19919;-83
2023/01/05 02:45:30;;;;;;;;;;;;;;;7.08;100.00;93514.88;2048572;28;19960;-83
2023/01/05 02:46:31;;;;;;;;;;;;;;;7.05;100.00;93500.47;2050194;28;19918;-83
2023/01/05 02:47:34;;;;;;;;;;;;;;;6.94;100.00;93493.66;2040686;28;19918;-83
2023/01/05 02:48:36;;;;;;;;;;;;;;;6.93;100.00;93498.19;2040977;28;19910;-83
2023/01/05 02:49:39;;;;;;;;;;;;;;;7.10;100.00;93501.22;2040331;29;19921;-83
2023/01/05 02:50:43;;;;;;;;;;;;;;;7.05;100.00;93502.34;2044901;28;20311;-84
2023/01/05 02:51:47;;;;;;;;;;;;;;;6.98;100.00;93486.41;2042522;28;20344;-84
2023/01/05 02:53:08;;;;;;;;;;;;;;;7.02;100.00;93492.47;2049532;28;20429;-83
2023/01/05 02:54:13;;;;;;;;;;;;;;;7.05;100.00;93492.47;2052573;28;19914;-84
2023/01/05 02:55:16;;;;;;;;;;;;;;;6.98;100.00;93497.84;2048961;28;19969;-85
2023/01/05 02:56:22;;;;;;;;;;;;;;;6.97;100.00;93483.00;2048873;28;19919;-84
2023/01/05 02:57:46;;;;;;;;;;;;;;;7.00;100.00;93484.91;2058114;28;19922;-84
2023/01/05 02:58:50;;;;;;;;;;;;;;;6.98;100.00;93479.22;2059387;28;20287;-84
2023/01/05 02:59:53;;;;;;;;;;;;;;;7.05;100.00;93483.75;2049559;28;19918;-83
2023/01/05 03:00:56;;;;;;;;;;;;;;;6.93;100.00;93481.50;2055028;28;20343;-84
2023/01/05 03:02:15;;;;;;;;;;;;;;;7.15;100.00;93484.88;2064331;28;19963;-84
2023/01/05 03:03:31;;;;;;;;;;;;;;;7.14;100.00;93486.00;2057514;28;20009;-84
2023/01/05 03:04:58;;;;;;;;;;;;;;;7.16;100.00;93484.50;2057888;28;19914;-84
2023/01/05 03:06:02;;;;;;;;;;;;;;;7.11;100.00;93484.09;2053632;28;19921;-85
2023/01/05 03:07:05;;;;;;;;;;;;;;;7.22;100.00;93479.53;2047294;28;19937;-85
2023/01/05 03:08:09;;;;;;;;;;;;;;;7.20;100.00;93481.81;2051067;28;19972;-84
2023/01/05 03:09:10;;;;;;;;;;;;;;;7.10;100.00;93483.34;2063044;28;20046;-85
2023/01/05 03:14:26;;;;;;;;;;;;;;;7.15;100.00;93484.88;2072607;28;19924;-85
2023/01/05 03:15:29;;;;;;;;;;;;;;;7.31;100.00;93493.19;2062401;28;19968;-85
2023/01/05 03:16:32;;;;;;;;;;;;;;;7.22;100.00;93490.91;2058468;28;19917;-84
2023/01/05 03:17:42;;;;;;;;;;;;;;;7.07;100.00;93500.09;2065246;28;19960;-84
2023/01/05 03:20:03;;;;;;;;;;;;;;;7.05;100.00;93497.03;2070393;28;19921;-84
2023/01/05 03:21:04;;;;;;;;;;;;;;;7.21;100.00;93499.28;2065933;28;19910;-84
2023/01/05 03:35:51;;;;;;;;;;;;;;;7.10;100.00;93503.88;2066104;28;19920;-84
2023/01/05 03:36:55;;;;;;;;;;;;;;;7.03;100.00;93500.09;2063108;28;20251;-83
2023/01/05 03:38:10;;;;;;;;;;;;;;;7.04;100.00;93498.19;2060435;28;19917;-83
2023/01/05 03:39:12;;;;;;;;;;;;;;;7.03;100.00;93499.34;2059141;28;19965;-83
2023/01/05 03:40:33;;;;;;;;;;;;;;;6.96;100.00;93504.66;2058132;28;19964;-84
2023/01/05 03:41:35;;;;;;;;;;;;;;;6.92;100.00;93498.59;2064676;28;19913;-83
2023/01/05 03:42:36;;;;;;;;;;;;;;;6.88;100.00;93497.84;2049676;28;19918;-84
2023/01/05 03:43:38;;;;;;;;;;;;;;;7.07;100.00;93494.78;2057772;28;19910;-84
2023/01/05 03:44:40;;;;;;;;;;;;;;;7.02;100.00;93495.94;2061664;28;19910;-83
2023/01/05 03:45:49;;;;;;;;;;;;;;;6.98;100.00;93497.84;2049465;28;19911;-84
2023/01/05 03:46:50;;;;;;;;;;;;;;;7.26;100.00;93490.91;2050623;28;20443;-84
2023/01/05 03:47:51;;;;;;;;;;;;;;;7.12;100.00;93488.31;2049453;28;19960;-84
2023/01/05 03:48:51;;;;;;;;;;;;;;;7.09;100.00;93491.72;2047446;29;19914;-83
2023/01/05 03:49:52;;;;;;;;;;;;;;;7.05;100.00;93497.78;2051468;28;19914;-83
2023/01/05 03:50:53;;;;;;;;;;;;;;;7.03;100.00;93494.78;2043715;28;19922;-83
2023/01/05 03:52:06;;;;;;;;;;;;;;;6.99;100.00;93496.69;2051154;28;19929;-83
2023/01/05 03:53:07;;;;;;;;;;;;;;;6.97;100.00;93492.88;2059481;28;19961;-83
2023/01/05 03:54:17;;;;;;;;;;;;;;;7.02;100.00;93492.47;2047610;28;19914;-84
2023/01/05 03:55:18;;;;;;;;;;;;;;;7.07;100.00;93508.81;2059459;28;19914;-84
2023/01/05 03:56:23;;;;;;;;;;;;;;;7.26;100.00;93493.56;2056744;28;20023;-84
2023/01/05 03:57:24;;;;;;;;;;;;;;;7.23;100.00;93495.09;2057417;28;19921;-84
2023/01/05 03:58:25;;;;;;;;;;;;;;;7.18;100.00;93498.16;2063421;28;19961;-85
2023/01/05 03:59:26;;;;;;;;;;;;;;;7.07;100.00;93508.81;2068417;28;20714;-84
2023/01/05 04:00:27;;;;;;;;;;;;;;;7.42;100.00;93512.53;2059923;28;20021;-84
2023/01/05 04:01:32;;;;;;;;;;;;;;;7.47;100.00;93504.13;2063432;28;19992;-84
2023/01/05 04:02:33;;;;;;;;;;;;;;;7.42;100.00;93495.78;2065405;28;19995;-84
2023/01/05 04:03:34;;;;;;;;;;;;;;;7.35;100.00;93501.16;2049430;29;19956;-85
2023/01/05 04:04:35;;;;;;;;;;;;;;;7.36;100.00;93498.09;2043017;28;19917;-83
2023/01/05 04:05:36;;;;;;;;;;;;;;;7.22;100.00;93500.81;2051709;28;20014;-83
2023/01/05 04:06:44;;;;;;;;;;;;;;;7.16;100.00;93497.03;2046220;28;19921;-84
2023/01/05 04:07:45;;;;;;;;;;;;;;;7.26;100.00;93499.66;2055319;28;19941;-84
2023/01/05 04:08:46;;;;;;;;;;;;;;;7.22;100.00;93484.84;2057302;28;19914;-84
2023/01/05 04:09:48;;;;;;;;;;;;;;;7.28;100.00;93483.31;2057362;28;19910;-85
2023/01/05 04:10:50;;;;;;;;;;;;;;;7.38;100.00;93484.44;2055219;28;20409;-83
2023/01/05 04:11:51;;;;;;;;;;;;;;;7.32;100.00;93492.03;2041825;28;19921;-84
2023/01/05 04:12:52;;;;;;;;;;;;;;;7.24;100.00;93493.97;2061088;28;21325;-83
2023/01/05 04:13:53;;;;;;;;;;;;;;;7.21;100.00;93493.97;2059144;28;19926;-83
2023/01/05 04:14:54;;;;;;;;;;;;;;;7.16;100.00;93486.41;2052467;28;19914;-83
2023/01/05 04:15:54;;;;;;;;;;;;;;;7.15;100.00;93488.28;2053209;28;19914;-84
2023/01/05 04:16:55;;;;;;;;;;;;;;;7.10;100.00;93483.34;2062438;28;19926;-83
2023/01/05 04:17:56;;;;;;;;;;;;;;;7.08;100.00;93496.28;2064650;28;19925;-84
2023/01/05 04:18:57;;;;;;;;;;;;;;;7.16;100.00;93486.41;2047893;29;19915;-84
2023/01/05 04:19:57;;;;;;;;;;;;;;;7.36;100.00;93484.78;2041489;29;20887;-83
2023/01/05 04:20:58;;;;;;;;;;;;;;;7.20;100.00;93484.47;2049228;28;19922;-84
2023/01/05 04:21:59;;;;;;;;;;;;;;;7.18;100.00;93486.75;2057287;28;19921;-84
2023/01/05 04:23:00;;;;;;;;;;;;;;;7.22;100.00;93474.22;2065213;28;19913;-85
2023/01/05 04:24:01;;;;;;;;;;;;;;;7.50;100.00;93476.00;2053767;28;19969;-84
2023/01/05 04:25:02;;;;;;;;;;;;;;;7.58;100.00;93478.25;2065003;28;20401;-84
2023/01/05 04:26:03;;;;;;;;;;;;;;;7.35;100.00;93471.91;2057195;28;19942;-84
2023/01/05 04:27:03;;;;;;;;;;;;;;;7.33;100.00;93464.28;2048034;28;19945;-84
2023/01/05 04:28:04;;;;;;;;;;;;;;;7.47;100.00;93476.78;2048629;28;20319;-84
2023/01/05 04:29:05;;;;;;;;;;;;;;;7.27;100.00;93466.59;2041335;29;19965;-85
2023/01/05 04:30:06;;;;;;;;;;;;;;;7.19;100.00;93474.97;2041284;29;19961;-84
2023/01/05 04:31:07;;;;;;;;;;;;;;;7.18;100.00;93468.16;2041364;29;20391;-84
2023/01/05 04:32:08;;;;;;;;;;;;;;;7.22;100.00;93472.31;2048848;28;19937;-83
2023/01/05 04:33:09;;;;;;;;;;;;;;;7.16;100.00;93471.19;2046976;29;19970;-84
2023/01/05 04:34:09;;;;;;;;;;;;;;;7.18;100.00;93474.22;2053337;28;19917;-84
2023/01/05 04:35:10;;;;;;;;;;;;;;;7.15;100.00;93472.31;2054971;28;19983;-85
2023/01/05 04:36:23;;;;;;;;;;;;;;;7.22;100.00;93464.34;2044528;28;19915;-84
2023/01/05 04:37:24;;;;;;;;;;;;;;;7.48;100.00;93468.41;2041154;29;20737;-84
2023/01/05 04:38:25;;;;;;;;;;;;;;;7.59;100.00;93473.69;2043311;28;19951;-85
2023/01/05 04:39:26;;;;;;;;;;;;;;;7.44;100.00;93472.25;2049115;28;19985;-84
2023/01/05 04:40:27;;;;;;;;;;;;;;;7.38;100.00;93474.53;2057918;28;19918;-84
2023/01/05 04:41:28;;;;;;;;;;;;;;;7.36;100.00;93468.84;2057757;28;19979;-84
2023/01/05 04:42:28;;;;;;;;;;;;;;;7.60;100.00;93474.47;2058912;28;19954;-84
2023/01/05 04:43:29;;;;;;;;;;;;;;;7.48;100.00;93473.72;2052156;28;20366;-84
2023/01/05 04:44:30;;;;;;;;;;;;;;;7.54;100.00;93471.44;2054106;28;19918;-84
2023/01/05 04:45:31;;;;;;;;;;;;;;;7.73;100.00;93470.22;2047004;28;19925;-84
2023/01/05 04:46:32;;;;;;;;;;;;;;;7.54;100.00;93466.09;2042314;28;19964;-84
2023/01/05 04:47:35;;;;;;;;;;;;;;;7.51;100.00;93472.22;2052332;28;19910;-85
2023/01/05 04:48:43;;;;;;;;;;;;;;;7.42;100.00;93471.84;2055346;28;19917;-84
2023/01/05 04:49:44;;;;;;;;;;;;;;;7.39;100.00;93475.31;2066742;28;20310;-84
2023/01/05 04:50:50;;;;;;;;;;;;;;;7.31;100.00;93474.56;2059071;28;19916;-84
2023/01/05 04:51:54;;;;;;;;;;;;;;;7.28;100.00;93480.63;2057409;28;19914;-85
2023/01/05 04:52:54;;;;;;;;;;;;;;;7.17;100.00;93479.94;2056575;28;19917;-84
2023/01/05 04:53:55;;;;;;;;;;;;;;;7.15;100.00;93477.63;2057090;28;19909;-84
2023/01/05 04:54:56;;;;;;;;;;;;;;;7.25;100.00;93481.44;2056999;28;19910;-85
2023/01/05 04:55:57;;;;;;;;;;;;;;;7.24;100.00;93488.66;2056937;28;20644;-84
2023/01/05 04:56:58;;;;;;;;;;;;;;;7.21;100.00;93486.75;2057517;28;19918;-84
2023/01/05 04:57:59;;;;;;;;;;;;;;;7.18;100.00;93489.41;2056957;28;19924;-84
2023/01/05 04:58:59;;;;;;;;;;;;;;;7.15;100.00;93487.53;2056796;28;19913;-85
2023/01/05 05:00:00;;;;;;;;;;;;;;;7.10;100.00;93480.69;2064948;28;19913;-84
2023/01/05 05:01:01;;;;;;;;;;;;;;;7.12;100.00;93485.66;2062965;28;19960;-85
2023/01/05 05:02:02;;;;;;;;;;;;;;;7.10;100.00;93477.28;2053042;28;20331;-85
2023/01/05 05:03:03;;;;;;;;;;;;;;;7.06;100.00;93486.03;2046171;29;19989;-84
2023/01/05 05:04:04;;;;;;;;;;;;;;;7.05;100.00;93484.50;2049129;28;19918;-83
2023/01/05 05:05:04;;;;;;;;;;;;;;;7.04;100.00;93485.66;2052894;28;19910;-84
2023/01/05 05:06:05;;;;;;;;;;;;;;;7.10;100.00;93480.69;2059092;28;20040;-84
2023/01/05 05:07:06;;;;;;;;;;;;;;;7.11;100.00;93481.44;2048929;28;19962;-84
2023/01/05 05:08:07;;;;;;;;;;;;;;;7.18;100.00;93476.13;2040901;29;19991;-83
2023/01/05 05:09:08;;;;;;;;;;;;;;;7.11;100.00;93476.88;2056733;28;19914;-83
2023/01/05 05:10:09;;;;;;;;;;;;;;;7.30;100.00;93478.38;2052668;28;19910;-84
2023/01/05 05:11:10;;;;;;;;;;;;;;;7.20;100.00;93476.47;2055508;28;19914;-84
2023/01/05 05:12:12;;;;;;;;;;;;;;;7.22;100.00;93485.59;2050547;28;19914;-85
2023/01/05 05:13:13;;;;;;;;;;;;;;;7.18;100.00;93486.75;2041414;28;19911;-84
2023/01/05 05:14:13;;;;;;;;;;;;;;;7.15;100.00;93476.88;2048167;29;19958;-84
2023/01/05 05:15:14;;;;;;;;;;;;;;;7.17;100.00;93483.34;2054936;28;19918;-84
2023/01/05 05:16:15;;;;;;;;;;;;;;;7.37;100.00;93490.88;2055738;28;19973;-84
2023/01/05 05:17:27;;;;;;;;;;;;;;;7.40;100.00;93485.53;2054955;28;19914;-84
2023/01/05 05:18:28;;;;;;;;;;;;;;;7.36;100.00;93484.78;2051409;28;19913;-84
2023/01/05 05:19:29;;;;;;;;;;;;;;;7.25;100.00;93484.84;2056655;28;19922;-83
2023/01/05 05:20:30;;;;;;;;;;;;;;;7.27;100.00;93485.19;2054838;28;19948;-84
2023/01/05 05:21:32;;;;;;;;;;;;;;;7.26;100.00;93488.25;2060648;28;19952;-84
2023/01/05 05:22:33;;;;;;;;;;;;;;;7.34;100.00;93481.78;2051721;28;19937;-84
2023/01/05 05:23:34;;;;;;;;;;;;;;;7.40;100.00;93488.19;2048861;28;19910;-84
2023/01/05 05:24:34;;;;;;;;;;;;;;;7.59;100.00;93492.28;2056774;28;19917;-84
2023/01/05 05:25:35;;;;;;;;;;;;;;;7.40;100.00;93482.13;2048691;28;20458;-84
2023/01/05 05:26:44;;;;;;;;;;;;;;;7.37;100.00;93485.56;2057934;28;19925;-85
2023/01/05 05:27:52;;;;;;;;;;;;;;;7.31;100.00;93482.53;2049784;28;19914;-83
2023/01/05 05:28:53;;;;;;;;;;;;;;;7.19;100.00;93485.63;2052817;28;19946;-85
2023/01/05 05:29:54;;;;;;;;;;;;;;;7.17;100.00;93495.88;2061627;28;19967;-84
2023/01/05 05:31:01;;;;;;;;;;;;;;;7.34;100.00;93489.75;2070818;28;19939;-84
2023/01/05 05:32:02;;;;;;;;;;;;;;;7.20;100.00;93476.47;2057536;28;19918;-84
2023/01/05 05:33:02;;;;;;;;;;;;;;;7.16;100.00;93484.50;2047552;29;20335;-84
2023/01/05 05:34:03;;;;;;;;;;;;;;;7.10;100.00;93483.34;2046614;29;19910;-84
2023/01/05 05:35:07;;;;;;;;;;;;;;;7.07;100.00;93484.91;2059886;28;20577;-84
2023/01/05 05:36:08;;;;;;;;;;;;;;;7.25;100.00;93484.09;2056356;28;20370;-85
2023/01/05 05:37:09;;;;;;;;;;;;;;;7.17;100.00;93482.59;2054659;28;19910;-85
2023/01/05 05:38:10;;;;;;;;;;;;;;;7.13;100.00;93485.25;2056791;28;19932;-84
2023/01/05 05:39:11;;;;;;;;;;;;;;;7.13;100.00;93481.84;2048599;28;19911;-84
2023/01/05 05:40:12;;;;;;;;;;;;;;;7.16;100.00;93481.09;2054725;28;19914;-84
2023/01/05 05:41:13;;;;;;;;;;;;;;;7.13;100.00;93487.16;2064686;28;20030;-84
2023/01/05 05:42:14;;;;;;;;;;;;;;;7.10;100.00;93487.91;2055554;28;21595;-84
2023/01/05 05:43:14;;;;;;;;;;;;;;;7.07;100.00;93492.13;2046733;29;19919;-84
2023/01/05 05:44:15;;;;;;;;;;;;;;;7.02;100.00;93489.81;2046793;28;20695;-84
2023/01/05 05:45:16;;;;;;;;;;;;;;;7.00;100.00;93484.91;2058831;28;19917;-84
2023/01/05 05:46:17;;;;;;;;;;;;;;;7.02;100.00;93500.47;2057572;28;20340;-85
2023/01/05 05:47:28;;;;;;;;;;;;;;;7.05;100.00;93499.69;2055157;28;20365;-84
2023/01/05 05:48:29;;;;;;;;;;;;;;;7.07;100.00;93482.25;2042255;29;20017;-84
2023/01/05 05:49:30;;;;;;;;;;;;;;;7.19;100.00;93491.69;2047408;28;19915;-85
2023/01/05 05:50:31;;;;;;;;;;;;;;;7.21;100.00;93486.75;2066915;28;20059;-84
2023/01/05 05:51:32;;;;;;;;;;;;;;;7.16;100.00;93499.69;2056475;28;20000;-84
2023/01/05 05:52:32;;;;;;;;;;;;;;;7.25;100.00;93500.03;2044717;29;20000;-85
2023/01/05 05:53:41;;;;;;;;;;;;;;;7.20;100.00;93501.19;2046645;28;19910;-84
2023/01/05 05:54:42;;;;;;;;;;;;;;;7.14;100.00;93513.34;2057917;28;19910;-84
2023/01/05 05:55:48;;;;;;;;;;;;;;;7.11;100.00;93510.69;2058710;28;20387;-84
2023/01/05 05:56:49;;;;;;;;;;;;;;;7.09;100.00;93507.66;2049273;28;20295;-83
2023/01/05 05:57:50;;;;;;;;;;;;;;;7.09;100.00;93511.09;2044117;28;19957;-84
2023/01/05 05:58:51;;;;;;;;;;;;;;;7.14;100.00;93513.34;2042368;28;19929;-84
2023/01/05 05:59:51;;;;;;;;;;;;;;;7.08;100.00;93512.22;2048167;28;19919;-84
2023/01/05 06:00:56;;;;;;;;;;;;;;;7.05;100.00;93515.66;2050815;28;19910;-85
2023/01/05 06:01:57;;;;;;;;;;;;;;;7.10;100.00;93511.84;2049480;28;19914;-84
2023/01/05 06:02:57;;;;;;;;;;;;;;;7.17;100.00;93520.56;2060642;28;19954;-85
2023/01/05 06:03:59;;;;;;;;;;;;;;;7.18;100.00;93521.31;2065259;28;19936;-84
2023/01/05 06:04:59;;;;;;;;;;;;;;;7.26;100.00;93528.13;2056421;28;19910;-84
2023/01/05 06:06:01;;;;;;;;;;;;;;;7.17;100.00;93525.88;2056444;28;19914;-85
2023/01/05 06:07:02;;;;;;;;;;;;;;;7.26;100.00;93526.22;2068555;28;19944;-84
2023/01/05 06:08:03;;;;;;;;;;;;;;;7.46;100.00;93526.56;2063922;28;19945;-85
2023/01/05 06:09:04;;;;;;;;;;;;;;;7.44;100.00;93517.44;2064347;28;19948;-85
2023/01/05 06:10:05;;;;;;;;;;;;;;;7.38;100.00;93522.41;2053946;28;19977;-84
2023/01/05 06:11:07;;;;;;;;;;;;;;;7.25;100.00;93523.97;2054382;28;19965;-86